createdAt,value
2022-10-09T00:04:39.362Z,8.20
2022-10-09T00:09:42.818Z,8.65
2022-10-09T00:14:47.987Z,8.93
2022-10-09T00:19:50.083Z,8.88
2022-10-09T00:24:53.582Z,10.20
2022-10-09T00:29:55.657Z,7.63
2022-10-09T00:34:57.816Z,9.68
2022-10-09T00:40:01.367Z,8.20
2022-10-09T00:45:04.663Z,9.63
2022-10-09T00:50:19.575Z,10.25
2022-10-09T00:55:27.111Z,7.28
2022-10-09T01:00:29.473Z,8.00
2022-10-09T01:05:42.089Z,7.38
2022-10-09T01:10:51.422Z,7.82
2022-10-09T01:15:56.065Z,4.30
2022-10-09T01:21:05.025Z,6.13
2022-10-09T01:26:31.958Z,5.68
2022-10-09T01:31:39.657Z,5.57
2022-10-09T01:36:42.841Z,5.35
2022-10-09T01:41:45.055Z,7.03
2022-10-09T01:46:48.918Z,6.25
2022-10-09T01:51:58.270Z,6.00
2022-10-09T01:57:03.798Z,5.68
2022-10-09T02:02:08.908Z,5.78
2022-10-09T02:07:11.725Z,6.70
2022-10-09T02:12:17.153Z,5.43
2022-10-09T02:17:27.833Z,5.18
2022-10-09T02:22:31.701Z,6.82
2022-10-09T02:27:34.520Z,7.53
2022-10-09T02:32:38.267Z,7.70
2022-10-09T02:37:43.377Z,6.32
2022-10-09T02:42:45.530Z,6.72
2022-10-09T02:47:49.061Z,5.70
2022-10-09T02:52:51.425Z,5.72
2022-10-09T02:57:53.619Z,7.25
2022-10-09T03:03:00.085Z,6.43
2022-10-09T03:08:02.216Z,5.90
2022-10-09T03:13:04.406Z,4.97
2022-10-09T03:18:07.955Z,5.43
2022-10-09T03:23:10.026Z,5.15
2022-10-09T03:28:12.161Z,4.60
2022-10-09T03:33:15.660Z,6.15
2022-10-09T03:38:18.324Z,5.40
2022-10-09T03:43:20.662Z,5.47
2022-10-09T03:48:24.982Z,6.07
2022-10-09T03:53:27.790Z,6.57
2022-10-09T03:58:29.986Z,7.10
2022-10-09T04:03:33.563Z,5.93
2022-10-09T04:08:36.882Z,6.20
2022-10-09T04:13:39.077Z,5.32
2022-10-09T04:18:44.852Z,8.93
2022-10-09T04:23:47.201Z,8.13
2022-10-09T04:28:49.732Z,7.15
2022-10-09T04:33:56.497Z,6.30
2022-10-09T04:38:58.602Z,4.80
2022-10-09T04:44:00.935Z,5.47
2022-10-09T04:49:04.801Z,8.02
2022-10-09T04:54:06.999Z,7.07
2022-10-09T04:59:09.190Z,5.22
2022-10-09T05:04:12.640Z,5.35
2022-10-09T05:09:14.754Z,6.75
2022-10-09T05:14:16.840Z,7.28
2022-10-09T05:19:20.319Z,6.22
2022-10-09T05:24:22.770Z,5.57
2022-10-09T05:29:25.026Z,5.68
2022-10-09T05:34:28.741Z,6.20
2022-10-09T05:39:32.458Z,6.05
2022-10-09T05:44:34.607Z,6.10
2022-10-09T05:49:38.052Z,6.78
2022-10-09T05:54:42.078Z,6.43
2022-10-09T05:59:44.181Z,7.10
2022-10-09T06:04:47.783Z,6.43
2022-10-09T06:09:49.911Z,5.85
2022-10-09T06:14:51.998Z,5.55
2022-10-09T06:19:55.465Z,6.97
2022-10-09T06:24:57.536Z,8.00
2022-10-09T06:29:59.843Z,6.15
2022-10-09T06:35:03.421Z,5.43
2022-10-09T06:40:06.334Z,6.53
2022-10-09T06:45:09.883Z,6.35
2022-10-09T06:50:13.357Z,6.50
2022-10-09T06:55:15.681Z,5.47
2022-10-09T07:00:23.297Z,4.80
2022-10-09T07:05:30.146Z,6.38
2022-10-09T07:10:35.375Z,6.15
2022-10-09T07:15:40.514Z,4.65
2022-10-09T07:20:48.255Z,6.13
2022-10-09T07:25:51.456Z,6.80
2022-10-09T07:30:57.599Z,4.72
2022-10-09T07:36:06.214Z,5.47
2022-10-09T07:41:13.362Z,5.63
2022-10-09T07:46:19.745Z,6.65
2022-10-09T07:51:29.680Z,5.45
2022-10-09T07:56:37.957Z,7.13
2022-10-09T08:01:42.453Z,4.53
2022-10-09T08:06:46.740Z,7.03
2022-10-09T08:11:51.555Z,6.20
2022-10-09T08:16:54.214Z,5.70
2022-10-09T08:22:03.145Z,5.05
2022-10-09T08:27:06.318Z,5.38
2022-10-09T08:32:14.829Z,6.43
2022-10-09T08:37:20.512Z,6.93
2022-10-09T08:42:30.893Z,3.72
2022-10-09T08:47:42.788Z,5.85
2022-10-09T08:52:56.701Z,7.65
2022-10-09T08:58:07.715Z,5.78
2022-10-09T09:03:41.082Z,7.32
2022-10-09T09:08:54.369Z,6.25
2022-10-09T09:14:07.387Z,7.78
2022-10-09T09:19:22.011Z,8.73
2022-10-09T09:24:36.540Z,6.68
2022-10-09T09:29:44.788Z,6.40
2022-10-09T09:34:47.517Z,15.75
2022-10-09T09:40:34.816Z,8.38
2022-10-09T09:45:22.283Z,8.00
2022-10-09T09:50:52.894Z,6.28
2022-10-09T09:56:08.518Z,6.75
2022-10-09T10:01:23.327Z,6.43
2022-10-09T10:06:29.387Z,4.45
2022-10-09T10:11:37.639Z,6.35
2022-10-09T10:16:42.310Z,5.13
2022-10-09T10:21:52.520Z,4.80
2022-10-09T10:27:02.298Z,5.88
2022-10-09T10:32:13.789Z,3.25
2022-10-09T10:37:29.736Z,3.97
2022-10-09T10:42:44.297Z,5.00
2022-10-09T10:47:53.186Z,3.65
2022-10-09T10:53:08.826Z,4.80
2022-10-09T10:58:27.917Z,4.50
2022-10-09T11:03:40.127Z,5.97
2022-10-09T11:09:01.389Z,4.50
2022-10-09T11:14:20.173Z,5.82
2022-10-09T11:19:45.363Z,6.28
2022-10-09T11:25:13.059Z,5.05
2022-10-09T11:30:18.046Z,3.75
2022-10-09T11:35:22.833Z,6.38
2022-10-09T11:40:31.253Z,6.50
2022-10-09T11:45:42.435Z,4.13
2022-10-09T11:50:54.729Z,7.10
2022-10-09T11:56:09.782Z,4.85
2022-10-09T12:01:26.500Z,4.43
2022-10-09T12:06:33.111Z,5.25
2022-10-09T12:11:36.966Z,3.80
2022-10-09T12:16:46.418Z,4.85
2022-10-09T12:22:03.674Z,3.50
2022-10-09T12:27:15.768Z,5.70
2022-10-09T12:32:25.733Z,5.90
2022-10-09T12:37:35.029Z,5.45
2022-10-09T12:42:37.176Z,4.13
2022-10-09T12:47:43.542Z,5.15
2022-10-09T12:52:54.405Z,3.22
2022-10-09T12:58:03.606Z,4.57
2022-10-09T13:03:36.926Z,2.67
2022-10-09T13:08:52.384Z,4.68
2022-10-09T13:14:04.770Z,5.10
2022-10-09T13:19:34.881Z,4.55
2022-10-09T13:24:58.388Z,6.10
2022-10-09T13:30:27.140Z,6.60
2022-10-09T13:35:35.714Z,4.10
2022-10-09T13:40:44.052Z,3.97
2022-10-09T13:45:51.600Z,4.75
2022-10-09T13:51:04.193Z,4.20
2022-10-09T13:56:29.317Z,2.83
2022-10-09T14:01:34.968Z,4.07
2022-10-09T14:07:41.163Z,4.35
2022-10-09T14:13:04.356Z,3.47
2022-10-09T14:18:13.359Z,5.53
2022-10-09T14:23:19.289Z,5.72
2022-10-09T14:28:24.371Z,5.53
2022-10-09T14:33:30.171Z,3.78
2022-10-09T14:38:44.514Z,3.78
2022-10-09T14:43:55.982Z,8.32
2022-10-09T14:49:07.669Z,4.80
2022-10-09T14:54:18.107Z,4.85
2022-10-09T14:59:24.674Z,5.38
2022-10-09T15:04:31.219Z,4.20
2022-10-09T15:09:40.073Z,5.57
2022-10-09T15:14:45.945Z,7.20
2022-10-09T15:19:48.590Z,6.18
2022-10-09T15:24:53.421Z,5.03
2022-10-09T15:29:59.584Z,4.43
2022-10-09T15:35:06.042Z,7.40
2022-10-09T15:40:14.655Z,5.85
2022-10-09T15:45:20.534Z,13.80
2022-10-09T15:50:24.671Z,18.48
2022-10-09T15:55:28.225Z,10.18
2022-10-09T16:00:30.326Z,6.25
2022-10-09T16:05:36.964Z,4.50
2022-10-09T16:10:49.032Z,5.97
2022-10-09T16:15:51.812Z,5.72
2022-10-09T16:20:53.999Z,8.15
2022-10-09T16:26:02.107Z,5.18
2022-10-09T16:31:04.473Z,5.60
2022-10-09T16:36:11.165Z,5.60
2022-10-09T16:41:17.961Z,7.72
2022-10-09T16:46:22.265Z,6.82
2022-10-09T16:51:26.122Z,8.98
2022-10-09T16:56:33.126Z,5.60
2022-10-09T17:01:37.871Z,8.05
2022-10-09T17:06:42.664Z,8.85
2022-10-09T17:11:46.634Z,8.70
2022-10-09T17:16:48.850Z,9.45
2022-10-09T17:21:51.026Z,9.18
2022-10-09T17:26:55.615Z,9.05
2022-10-09T17:31:58.474Z,11.85
2022-10-09T17:37:00.891Z,11.63
2022-10-09T17:42:21.327Z,11.02
2022-10-09T17:47:23.817Z,9.23
2022-10-09T17:52:26.221Z,14.13
2022-10-09T17:57:30.208Z,11.65
2022-10-09T18:02:33.113Z,11.85
2022-10-09T18:07:36.379Z,13.95
2022-10-09T18:12:40.869Z,12.27
2022-10-09T18:17:43.684Z,11.45
2022-10-09T18:22:47.457Z,8.18
2022-10-09T18:27:52.264Z,6.78
2022-10-09T18:32:55.695Z,11.82
2022-10-09T18:37:59.196Z,10.00
2022-10-09T18:43:04.159Z,10.43
2022-10-09T18:48:08.428Z,10.60
2022-10-09T18:53:11.584Z,8.77
2022-10-09T18:58:17.012Z,12.30
2022-10-09T19:03:20.526Z,10.25
2022-10-09T19:08:23.769Z,12.48
2022-10-09T19:13:27.509Z,20.27
2022-10-09T19:18:30.184Z,14.15
2022-10-09T19:23:32.698Z,9.98
2022-10-09T19:28:38.747Z,13.07
2022-10-09T19:33:43.743Z,11.60
2022-10-09T19:38:46.685Z,9.95
2022-10-09T19:43:51.007Z,12.65
2022-10-09T19:48:53.434Z,16.25
2022-10-09T19:53:55.938Z,18.23
2022-10-09T19:59:03.512Z,20.42
2022-10-09T20:04:08.554Z,14.55
2022-10-09T20:09:12.121Z,15.52
2022-10-09T20:14:15.656Z,9.85
2022-10-09T20:19:17.864Z,9.30
2022-10-09T20:24:20.560Z,9.45
2022-10-09T20:29:26.795Z,13.55
2022-10-09T20:34:28.942Z,11.43
2022-10-09T20:39:31.550Z,9.35
2022-10-09T20:44:35.020Z,10.98
2022-10-09T20:49:37.136Z,13.30
2022-10-09T20:54:39.291Z,9.90
2022-10-09T20:59:45.298Z,9.90
2022-10-09T21:04:47.618Z,22.50
2022-10-09T21:09:49.703Z,9.43
2022-10-09T21:14:53.180Z,6.63
2022-10-09T21:19:55.517Z,8.80
2022-10-09T21:24:57.736Z,9.40
2022-10-09T21:30:01.296Z,10.95
2022-10-09T21:35:03.459Z,7.97
2022-10-09T21:40:06.291Z,11.75
2022-10-09T21:45:12.454Z,8.77
2022-10-09T21:50:14.537Z,6.78
2022-10-09T21:55:16.755Z,7.43
2022-10-09T22:00:20.601Z,10.68
2022-10-09T22:05:22.740Z,9.18
2022-10-09T22:10:24.845Z,9.00
2022-10-09T22:15:28.475Z,11.88
2022-10-09T22:20:30.716Z,10.68
2022-10-09T22:25:32.986Z,8.02
2022-10-09T22:30:36.778Z,9.48
2022-10-09T22:35:38.882Z,9.63
2022-10-09T22:40:43.854Z,7.75
2022-10-09T22:45:50.505Z,10.20
2022-10-09T22:50:52.597Z,10.07
2022-10-09T22:55:54.854Z,10.05
2022-10-09T23:00:58.361Z,9.40
2022-10-09T23:06:08.036Z,7.43
2022-10-09T23:11:11.283Z,7.40
2022-10-09T23:16:16.256Z,7.90
2022-10-09T23:21:21.651Z,7.82
2022-10-09T23:26:25.536Z,8.25
2022-10-09T23:31:30.527Z,8.15
2022-10-09T23:36:32.960Z,8.25
2022-10-09T23:41:35.797Z,8.40
2022-10-09T23:46:39.960Z,7.53
2022-10-09T23:51:42.080Z,6.68
2022-10-09T23:56:44.232Z,7.80
